Latest Weather Observations for Avalon

IDV60901

Issued at 8:31 am EST Wednesday 12 August 2020 (issued every 10 minutes, with the page automatically refreshed every 10 minutes)

About weather observations | Map of Melbourne area stations | Latest observations for Melbourne area | Other Formats
Station Details ID: 087113 Name: AVALON AIRPORT Lat: -38.03 Lon: 144.48 Height: 10.6 m
Data from the previous 72 hours. | See also: Recent months at Avalon
Date/Time
EST
Temp
°C
App
Temp
°C
Dew
Point
°C
Rel
Hum
%
Delta-T
°C
Wind Press
QNH
hPa
Press
MSL
hPa
Rain since
9am
mm
Dir  Spd
km/h
Gust
km/h
Spd
kts
Gust
kts
12/08:30am 10.5 8.6 10.5 100 0.0 NE 11 17 6 9 1010.3 1010.3 0.0
12/08:00am 10.2 7.1 10.2 100 0.0 NE 17 24 9 13 1009.8 1009.8 0.0
12/07:30am 10.0 6.3 10.0 100 0.0 NNE 20 28 11 15 1009.7 1009.7 0.0
12/07:00am 9.9 7.5 9.9 100 0.0 NNE 13 19 7 10 1010.0 1010.0 0.0
12/06:30am 10.0 7.2 9.9 99 0.1 NNE 15 19 8 10 1009.9 1009.9 0.0
12/06:00am 10.3 7.5 10.1 99 0.1 NNE 15 20 8 11 1010.2 1010.2 0.0
12/05:30am 10.3 7.1 10.1 99 0.1 NNE 17 20 9 11 1010.2 1010.2 0.0
12/05:00am 10.5 7.0 10.2 98 0.2 NNE 19 26 10 14 1010.1 1010.1 0.0
12/04:30am 10.5 6.8 9.4 93 0.5 NNE 19 26 10 14 1010.0 1010.0 0.0
12/04:00am 10.8 6.8 9.1 89 0.8 NNE 20 26 11 14 1010.1 1010.1 0.0
12/03:30am 11.3 6.3 8.2 81 1.5 NNE 24 32 13 17 1010.5 1010.5 0.0
12/03:00am 11.4 6.4 7.9 79 1.7 NNE 24 32 13 17 1010.6 1010.6 0.0
12/02:30am 11.5 7.2 7.8 78 1.8 NNE 20 26 11 14 1011.0 1011.0 0.0
12/02:00am 11.7 6.9 7.4 75 2.1 NNE 22 32 12 17 1011.6 1011.6 0.0
12/01:30am 11.6 6.8 7.3 75 2.1 NNE 22 35 12 19 1011.8 1011.8 0.0
12/01:00am 11.9 6.3 7.0 72 2.3 NNE 26 35 14 19 1011.8 1011.8 0.0
12/12:30am 11.9 6.3 7.0 72 2.3 NNE 26 35 14 19 1012.1 1012.1 0.0
12/12:00am 11.4 7.1 7.7 78 1.8 NE 20 28 11 15 1012.2 1012.2 0.0
 
Date/Time
EST
Temp
°C
App
Temp
°C
Dew
Point
°C
Rel
Hum
%
Delta-T
°C
Wind Press
QNH
hPa
Press
MSL
hPa
Rain since
9am
mm
Dir  Spd
km/h
Gust
km/h
Spd
kts
Gust
kts
11/11:30pm 11.4 8.4 7.5 77 1.9 N 13 19 7 10 1012.7 1012.7 0.0
11/11:00pm 11.3 9.3 7.0 75 2.0 NE 7 11 4 6 1012.9 1012.9 0.0
11/10:30pm 11.4 7.8 6.7 73 2.2 NNE 15 19 8 10 1013.0 1013.0 0.0
11/10:00pm 11.5 6.5 6.6 72 2.3 NE 22 30 12 16 1013.0 1013.0 0.0
11/09:30pm 11.8 6.4 6.5 70 2.5 NNE 24 32 13 17 1013.3 1013.3 0.0
11/09:00pm 11.9 6.5 6.4 69 2.6 NNE 24 33 13 18 1013.3 1013.3 0.0
11/08:30pm 11.2 8.0 6.7 74 2.1 NE 13 19 7 10 1013.6 1013.6 0.0
11/08:00pm 11.4 7.0 6.5 72 2.3 NE 19 28 10 15 1013.6 1013.6 0.0
11/07:30pm 11.6 7.1 6.9 73 2.2 NE 20 28 11 15 1013.4 1013.4 0.0
11/07:00pm 11.7 7.8 7.0 73 2.2 NE 17 28 9 15 1013.6 1013.6 0.0
11/06:30pm 11.9 7.3 6.6 70 2.5 NE 20 26 11 14 1013.3 1013.3 0.0
11/06:00pm 12.3 6.5 6.4 67 2.8 NNE 26 35 14 19 1013.3 1013.3 0.0
11/05:30pm 12.3 6.2 6.4 67 2.8 NNE 28 41 15 22 1013.1 1013.1 0.0
11/05:00pm 12.7 6.6 6.7 67 2.9 NNE 28 33 15 18 1012.9 1012.9 0.0
11/04:30pm 12.9 8.9 6.5 65 3.1 NNE 17 30 9 16 1013.2 1013.2 0.0
11/04:00pm 13.2 10.2 6.1 62 3.4 NNE 11 19 6 10 1013.7 1013.7 0.0
11/03:30pm 13.5 8.9 5.7 59 3.7 N 19 28 10 15 1014.0 1014.0 0.0
11/03:00pm 14.5 8.6 5.6 55 4.2 NNE 26 37 14 20 1014.4 1014.4 0.0
11/02:30pm 15.1 9.0 6.4 56 4.2 N 28 41 15 22 1014.2 1014.2 0.0
11/02:27pm 15.1 8.3 6.9 58 4.0 N 32 50 17 27 1014.3 1014.3 0.0
11/02:00pm 15.3 8.2 6.3 55 4.4 N 33 46 18 25 1014.8 1014.8 0.0
11/01:30pm 16.1 8.7 6.8 54 4.6 N 35 44 19 24 1014.9 1014.9 0.0
11/01:00pm 15.4 9.4 6.9 57 4.2 N 28 37 15 20 1015.2 1015.2 0.0
11/12:30pm 16.8 11.0 8.0 56 4.5 N 28 37 15 20 1015.8 1015.8 0.0
11/12:00pm 15.0 8.7 7.3 60 3.8 N 30 39 16 21 1016.6 1016.6 0.0
11/11:30am 15.3 10.5 9.0 66 3.2 N 24 35 13 19 1016.9 1016.9 0.0
11/11:00am 13.5 8.5 8.1 70 2.7 NNE 24 35 13 19 1017.2 1017.2 0.0
11/10:30am 11.9 8.6 9.6 86 1.2 NE 17 24 9 13 1017.7 1017.7 0.0
11/10:00am 10.2 6.9 9.7 97 0.3 NE 17 24 9 13 1017.7 1017.7 0.0
11/09:30am 8.3 5.0 7.9 97 0.2 NE 15 17 8 9 1017.9 1017.9 0.0
11/09:00am 8.2 4.8 7.6 96 0.3 NNE 15 19 8 10 1018.2 1018.2 0.0
11/08:30am 7.6 3.3 6.9 95 0.3 NNE 19 26 10 14 1018.6 1018.6 0.0
11/08:00am 6.8 2.8 6.7 99 0.0 N 17 20 9 11 1018.7 1018.7 0.0
11/07:30am 6.2 2.1 6.1 99 0.0 N 17 20 9 11 1018.7 1018.7 0.0
11/07:00am 4.9 0.5 4.9 100 0.0 N 17 19 9 10 1018.5 1018.5 0.0
11/06:30am 4.9 0.5 4.9 100 0.0 NNE 17 20 9 11 1018.2 1018.2 0.0
11/06:00am 5.1 0.8 5.1 100 0.0 NNE 17 20 9 11 1017.9 1017.9 0.0
11/05:30am 2.7 -1.3 2.7 100 0.0 NNE 13 17 7 9 1018.1 1018.1 0.0
11/05:00am 1.3 -2.6 1.3 100 0.0 NE 11 15 6 8 1018.4 1018.4 0.0
11/04:30am 1.9 -1.1 1.9 100 0.0 NE 7 9 4 5 1018.7 1018.7 0.0
11/04:00am 1.2 -2.3 1.2 100 0.0 NNE 9 13 5 7 1019.1 1019.1 0.0
11/03:30am 1.7 -1.3 1.7 100 0.0 ENE 7 11 4 6 1019.0 1019.0 0.0
11/03:27am 1.6 -1.5 1.6 100 0.0 ENE 7 11 4 6 1019.0 1019.0 0.0
11/03:02am 0.5 -2.5 0.5 100 0.0 E 6 9 3 5 1019.0 1019.0 0.0
11/03:00am 0.7 -2.5 0.7 100 0.0 E 7 9 4 5 1018.9 1018.9 0.0
11/02:40am 1.4 -0.4 1.4 100 0.0 CALM 0 0 0 0 1019.1 1019.1 0.0
11/02:30am 1.5 -0.3 1.5 100 0.0 CALM 0 0 0 0 1019.3 1019.3 0.0
11/02:00am 1.8 0.1 1.8 100 0.0 CALM 0 0 0 0 1019.5 1019.5 0.0
11/01:41am 1.4 -0.4 1.4 100 0.0 CALM 0 0 0 0 1019.6 1019.6 0.0
11/01:30am 1.1 -0.7 1.1 100 0.0 CALM 0 0 0 0 1019.4 1019.4 0.0
11/01:26am 1.7 0.0 1.7 100 0.0 CALM 0 6 0 3 1019.4 1019.4 0.0
11/01:00am 1.6 -0.9 1.6 100 0.0 E 4 7 2 4 1019.2 1019.2 0.0
11/12:30am 1.7 -0.4 1.7 100 0.0 E 2 9 1 5 1019.2 1019.2 0.0
11/12:02am 2.1 0.4 2.1 100 0.0 CALM 0 0 0 0 1019.3 1019.3 0.0
11/12:00am 2.5 0.9 2.5 100 0.0 CALM 0 0 0 0 1019.3 1019.3 0.0
 
Date/Time
EST
Temp
°C
App
Temp
°C
Dew
Point
°C
Rel
Hum
%
Delta-T
°C
Wind Press
QNH
hPa
Press
MSL
hPa
Rain since
9am
mm
Dir  Spd
km/h
Gust
km/h
Spd
kts
Gust
kts
10/11:30pm 3.6 1.8 3.6 100 0.0 N 2 7 1 4 1019.6 1019.6 0.0
10/11:00pm 3.2 0.0 3.2 100 0.0 NNW 9 11 5 6 1019.6 1019.6 0.0
10/10:30pm 4.8 3.6 4.8 100 0.0 CALM 0 0 0 0 1019.8 1019.8 0.0
10/10:00pm 4.8 1.9 4.8 100 0.0 N 9 9 5 5 1019.9 1019.9 0.0
10/09:30pm 5.1 2.3 5.1 100 0.0 NNW 9 11 5 6 1020.0 1020.0 0.0
10/09:00pm 5.7 4.7 5.7 100 0.0 CALM 0 0 0 0 1020.0 1020.0 0.0
10/08:30pm 6.6 5.8 6.6 100 0.0 CALM 0 0 0 0 1019.9 1019.9 0.0
10/08:00pm 6.3 4.3 6.3 100 0.0 W 6 7 3 4 1020.0 1020.0 0.0
10/07:30pm 7.2 6.6 7.2 100 0.0 CALM 0 0 0 0 1019.9 1019.9 0.0
10/07:00pm 7.4 5.7 7.4 100 0.0 NNW 6 7 3 4 1019.7 1019.7 0.0
10/06:30pm 9.3 8.8 9.2 99 0.0 E 2 6 1 3 1019.4 1019.4 0.0
10/06:00pm 8.7 7.1 8.6 99 0.0 ESE 7 9 4 5 1018.9 1018.9 0.0
10/05:30pm 9.9 8.2 8.5 91 0.7 E 7 9 4 5 1019.0 1019.0 0.0
10/05:00pm 12.1 10.2 9.1 82 1.5 E 9 13 5 7 1019.0 1019.0 0.0
10/04:30pm 13.0 9.8 8.5 74 2.2 E 15 17 8 9 1019.3 1019.3 0.0
10/04:00pm 13.7 11.1 9.2 74 2.3 ESE 13 19 7 10 1019.6 1019.6 0.0
10/03:30pm 13.8 11.7 8.2 69 2.8 E 9 15 5 8 1020.2 1020.2 0.0
10/03:00pm 13.5 10.7 8.4 71 2.5 ESE 13 17 7 9 1020.4 1020.4 0.0
10/02:30pm 13.9 11.1 8.5 70 2.7 E 13 19 7 10 1020.7 1020.7 0.0
10/02:00pm 13.7 10.3 9.2 74 2.3 E 17 20 9 11 1021.0 1021.0 0.0
10/01:30pm 13.0 9.1 8.7 75 2.2 E 19 24 10 13 1021.2 1021.2 0.0
10/01:00pm 13.1 10.1 9.4 78 1.9 ESE 15 20 8 11 1021.6 1021.6 0.0
10/12:30pm 12.7 9.0 9.3 80 1.7 E 19 24 10 13 1021.8 1021.8 0.0
10/12:00pm 12.7 9.4 9.5 81 1.6 E 17 20 9 11 1022.5 1022.5 0.0
10/11:30am 12.5 9.9 10.6 88 1.0 E 15 20 8 11 1023.1 1023.1 0.0
10/11:00am 12.0 9.4 10.7 92 0.7 ESE 15 19 8 10 1023.3 1023.3 0.0
10/10:30am 11.5 9.5 11.5 100 0.0 SE 13 17 7 9 1023.4 1023.4 0.0
10/10:00am 10.7 8.9 10.7 100 0.0 SE 11 17 6 9 1023.5 1023.5 0.0
10/09:30am 9.2 9.0 9.2 100 0.0 CALM 0 0 0 0 1023.7 1023.7 0.0
10/09:12am 8.4 8.0 8.4 100 0.0 CALM 0 6 0 3 1023.9 1023.9 0.0
10/09:00am 7.5 5.6 7.5 100 0.0 WNW 7 9 4 5 1023.8 1023.8 0.0
10/08:36am 5.3 2.9 5.3 100 0.0 NW 7 11 4 6 1023.8 1023.8 0.0
10/08:30am 5.1 2.3 5.1 100 0.0 NNW 9 11 5 6 1023.7 1023.7 0.0
10/08:06am 3.8 1.1 3.8 100 0.0 WNW 7 9 4 5 1023.4 1023.4 0.0
10/08:03am 3.6 0.9 3.6 100 0.0 WNW 7 9 4 5 1023.4 1023.4 0.0
10/08:00am 3.6 0.5 3.6 100 0.0 W 9 9 5 5 1023.3 1023.3 0.0
10/07:31am 2.7 -0.2 2.7 100 0.0 W 7 9 4 5 1023.1 1023.1 0.0
10/07:30am 2.9 0.1 2.9 100 0.0 W 7 9 4 5 1023.1 1023.1 0.0
10/07:21am 3.0 0.2 3.0 100 0.0 WNW 7 9 4 5 1023.0 1023.0 0.0
10/07:12am 3.2 0.4 3.2 100 0.0 NW 7 11 4 6 1023.0 1023.0 0.0
10/07:00am 3.3 0.1 3.3 100 0.0 NW 9 13 5 7 1022.7 1022.7 0.0
10/06:52am 2.5 -0.8 2.5 100 0.0 NNW 9 13 5 7 1022.6 1022.6 0.0
10/06:48am 3.2 0.0 3.2 100 0.0 NNW 9 13 5 7 1022.6 1022.6 0.0
10/06:30am 3.1 -0.1 3.1 100 0.0 NW 9 13 5 7 1022.5 1022.5 0.0
10/06:25am 3.2 1.0 3.2 100 0.0 WNW 4 13 2 7 1022.4 1022.4 0.0
10/06:00am 4.1 2.4 4.1 100 0.0 N 2 7 1 4 1022.3 1022.3 0.0
10/05:57am 4.0 1.9 4.0 100 0.0 N 4 9 2 5 1022.2 1022.2 0.0
10/05:38am 4.2 1.8 4.2 100 0.0 SE 6 13 3 7 1022.2 1022.2 0.0
10/05:30am 6.1 3.5 6.1 100 0.0 SE 9 11 5 6 1022.0 1022.0 0.0
10/05:00am 5.2 2.8 5.2 100 0.0 WNW 7 9 4 5 1022.5 1022.5 0.0
10/04:30am 6.8 4.0 6.8 100 0.0 ESE 11 13 6 7 1022.1 1022.1 0.0
10/04:00am 8.0 5.5 8.0 100 0.0 SE 11 15 6 8 1021.9 1021.9 0.0
10/03:30am 8.6 5.4 8.6 100 0.0 SE 15 20 8 11 1021.8 1021.8 0.0
10/03:00am 8.6 5.4 8.6 100 0.0 SE 15 19 8 10 1021.8 1021.8 0.0
10/02:30am 8.8 5.3 8.8 100 0.0 SE 17 20 9 11 1021.8 1021.8 0.0
10/02:00am 9.0 5.6 9.0 100 0.0 SE 17 20 9 11 1021.9 1021.9 0.0
10/01:30am 8.9 5.4 8.9 100 0.0 SE 17 20 9 11 1021.9 1021.9 0.0
10/01:00am 8.7 5.9 8.7 100 0.0 SE 13 17 7 9 1022.2 1022.2 0.0
10/12:30am 9.0 5.6 9.0 100 0.0 SE 17 20 9 11 1022.1 1022.1 0.0
10/12:00am 9.2 5.8 9.2 100 0.0 SE 17 22 9 12 1022.2 1022.2 0.0
 
Date/Time
EST
Temp
°C
App
Temp
°C
Dew
Point
°C
Rel
Hum
%
Delta-T
°C
Wind Press
QNH
hPa
Press
MSL
hPa
Rain since
9am
mm
Dir  Spd
km/h
Gust
km/h
Spd
kts
Gust
kts
09/11:30pm 9.4 6.1 9.4 100 0.0 SE 17 22 9 12 1022.2 1022.2 0.0
09/11:00pm 9.3 6.3 9.3 100 0.0 SE 15 20 8 11 1022.1 1022.1 0.0
09/10:30pm 9.7 6.1 9.7 100 0.0 SE 19 24 10 13 1022.2 1022.2 0.0
09/10:00pm 9.7 6.4 9.7 100 0.0 SE 17 22 9 12 1022.2 1022.2 0.0
09/09:30pm 9.9 6.3 9.9 100 0.0 SE 19 22 10 12 1022.2 1022.2 0.0
09/09:00pm 10.3 6.6 10.3 100 0.0 SE 20 26 11 14 1022.0 1022.0 0.0
09/08:30pm 10.3 6.6 10.3 100 0.0 SE 20 28 11 15 1021.9 1021.9 0.0
09/08:00pm 10.3 6.6 10.3 100 0.0 SE 20 24 11 13 1021.9 1021.9 0.0
09/07:30pm 10.0 6.8 10.0 100 0.0 SE 17 24 9 13 1022.1 1022.1 0.0
09/07:00pm 10.2 6.7 10.2 100 0.0 SE 19 24 10 13 1021.9 1021.9 0.0
09/06:30pm 10.4 6.9 10.2 99 0.1 SSE 19 24 10 13 1021.5 1021.5 0.0
09/06:00pm 10.5 6.8 10.3 99 0.1 SSE 20 26 11 14 1021.3 1021.3 0.0
09/05:30pm 11.1 6.6 10.0 93 0.6 SSE 24 32 13 17 1020.8 1020.8 0.0
09/05:00pm 12.0 7.5 9.9 87 1.1 SSE 24 32 13 17 1020.4 1020.4 0.0
09/04:30pm 12.7 7.8 9.9 83 1.4 SSE 26 35 14 19 1020.1 1020.1 0.0
09/04:00pm 13.2 8.2 9.6 79 1.8 SSE 26 32 14 17 1019.8 1019.8 0.0
09/03:30pm 13.9 8.5 9.5 75 2.3 SSE 28 35 15 19 1019.6 1019.6 0.0
09/03:00pm 14.3 9.3 9.7 74 2.4 SSE 26 35 14 19 1019.7 1019.7 0.0
09/02:30pm 14.3 9.2 9.1 71 2.6 SE 26 35 14 19 1019.7 1019.7 0.0
09/02:00pm 14.2 9.0 9.0 71 2.6 SE 26 33 14 18 1019.8 1019.8 0.0
09/01:30pm 14.2 9.7 10.0 76 2.2 SE 24 33 13 18 1020.1 1020.1 0.0
09/01:00pm 14.2 8.9 9.8 75 2.3 SE 28 39 15 21 1020.2 1020.2 0.0
09/12:30pm 14.3 9.6 10.5 78 2.0 SE 26 33 14 18 1020.4 1020.4 0.0
09/12:00pm 13.7 8.5 10.3 80 1.8 SE 28 37 15 20 1020.5 1020.5 0.0
09/11:30am 13.8 9.0 11.5 86 1.2 SE 28 39 15 21 1020.8 1020.8 0.0
09/11:00am 13.0 8.1 11.4 90 0.8 SE 28 41 15 22 1020.8 1020.8 0.0
09/10:30am 12.9 8.6 12.0 94 0.5 SE 26 35 14 19 1020.9 1020.9 0.0
09/10:00am 12.4 8.1 12.1 98 0.2 SE 26 37 14 20 1020.7 1020.7 0.0
09/09:30am 11.7 7.6 11.5 99 0.1 SE 24 33 13 18 1020.7 1020.7 0.0
09/09:00am 11.6 7.9 11.6 100 0.0 SSE 22 30 12 16 1020.5 1020.5 0.0

Latest Capital City Observations: Canberra | Sydney | Melbourne | Brisbane | Adelaide | Perth | Hobart | Darwin

Other formats

Comma delimited format used in spreadsheet applications
http://www.bom.gov.au/fwo/IDV60901/IDV60901.94854.axf

JavaScript Object Notation format (JSON) in row-major order
http://www.bom.gov.au/fwo/IDV60901/IDV60901.94854.json

Data quality

Most of these data are generated automatically and are frequently updated. Quality checks on data are not normally performed. It is possible for incorrect values to appear. Refer to information at About Latest Weather Observations and please check the disclaimer before using these data.